Belmont, TX (78604)

3:21 PM CST on February 09, 2016 (GMT -0600)
Saltcreek Ranch | | Change Station
CLOSE
Current Station
Personal Weather Station
Location: Seguin, TX
Elevation: 466 ft
Nearby Weather Stations

Elev 466 ft 29.53 °N, 97.83 °W | Updated 9 minutes ago

Clear
Clear
69.6 °F
Feels Like 69.6 °F
N
2.0
Wind Variable Wind from NNW
Gusts 10.0 mph

Today
High -- | Low -- °F
--% Chance of Precip.
Yesterday
High -- | Low -- °F
Precip. -- in
Pressure 30.25 in
Visibility 10.0 miles
Clouds Clear
Dew Point 32 °F
Humidity 25%
Rainfall 0.00 in
Snow Depth Not available.
7:15 AM 6:15 PM
New Moon, 2% visible
METAR KT20 092055Z AUTO 34009KT 10SM CLR 21/01 A3025 RMK AO2 T02130006
Pressure 30.25 in
Visibility 10.0 miles
Clouds Clear
Dew Point 32 °F
Humidity 25%
Rainfall 0.00 in
Snow Depth Not available.
7:15 AM 6:15 PM
New Moon, 2% visible
METAR KT20 092055Z AUTO 34009KT 10SM CLR 21/01 A3025 RMK AO2 T02130006

10-Day Weather Forecast

Almanac

Astronomy

Feb. 09, 2016 Rise Set
Actual Time
Civil Twilight
Nautical Twilight
Astronomical Twilight
Moon
Length of Visible Light
Length of Day
Tomorrow will be .
, % of the Moon is Illuminated

Today's Extremes

State Highs State Lows

Community

WunderPhotos

Upload Photos

1,891,708 photos uploaded!

WunderBlog® & News

Nearby

Air Quality

  Air Quality AQ Index Pollutant
Not available.

Snow Depth

Station Depth Elevation

Earthquake Activity

City Distance Mag. Time & Date
Minimum magnitude displayed is 2.5.

Coastal Water Temperatures

Place Temperature

Stations

Nearby Weather Stations

Station Location Temp. Windchill Dew Point Humidity Wind Precip. Elev Updated Type
                   

Watches & Warnings

There are currently no watches in effect.